Time;durP1;ratioP1;P1;durP2;ratioP2;P2;SDS_P1;SDS_P2;PMS_P1;PMS_P2;Temp;Humidity;BMP_temperature;BMP_pressure;BME280_temperature;BME280_humidity;BME280_pressure;Samples;Min_cycle;Max_cycle;Signal;HPM_P1;HPM_P2
2020/12/22 00:00:04;;;;;;;7.75;7.05;;;12.40;99.70;;;;;;5066753;28;20135;-44
2020/12/22 00:02:30;;;;;;;7.05;6.45;;;12.40;99.80;;;;;;5066933;28;20032;-45
2020/12/22 00:04:55;;;;;;;7.20;6.60;;;12.50;99.70;;;;;;5066816;28;20061;-44
2020/12/22 00:07:21;;;;;;;7.50;6.85;;;12.50;99.60;;;;;;5066984;28;20115;-44
2020/12/22 00:09:46;;;;;;;7.18;6.57;;;12.50;99.60;;;;;;5066983;28;20035;-44
2020/12/22 00:12:15;;;;;;;7.43;6.82;;;12.50;99.60;;;;;;5067152;28;20123;-44
2020/12/22 00:14:44;;;;;;;7.05;6.40;;;12.60;99.80;;;;;;5066674;28;20063;-44
2020/12/22 00:17:09;;;;;;;7.43;6.75;;;12.60;99.70;;;;;;5066909;28;20032;-44
2020/12/22 00:19:35;;;;;;;7.65;7.05;;;12.60;99.90;;;;;;5067170;28;20071;-43
2020/12/22 00:22:00;;;;;;;7.80;7.20;;;12.70;99.90;;;;;;5066585;28;20452;-44
2020/12/22 00:24:26;;;;;;;8.35;7.65;;;12.70;99.80;;;;;;5066673;28;20028;-44
2020/12/22 00:26:51;;;;;;;9.32;8.52;;;12.70;99.90;;;;;;5066571;28;20024;-44
2020/12/22 00:29:17;;;;;;;8.40;7.70;;;12.70;99.90;;;;;;5066542;28;20020;-44
2020/12/22 00:31:43;;;;;;;7.53;6.93;;;12.80;99.90;;;;;;5066527;28;20047;-44
2020/12/22 00:34:08;;;;;;;8.15;7.45;;;12.80;99.90;;;;;;5066974;28;20031;-44
2020/12/22 00:36:34;;;;;;;6.90;6.38;;;12.80;99.90;;;;;;5066644;28;20036;-44
2020/12/22 00:38:59;;;;;;;8.32;7.70;;;12.80;99.90;;;;;;5066642;28;20021;-44
2020/12/22 00:41:25;;;;;;;7.38;6.78;;;12.90;99.90;;;;;;5066749;28;20055;-44
2020/12/22 00:43:50;;;;;;;7.13;6.53;;;12.80;99.90;;;;;;5066298;28;20104;-44
2020/12/22 00:46:17;;;;;;;6.90;6.32;;;12.90;99.90;;;;;;5066637;28;20483;-44
2020/12/22 00:48:46;;;;;;;7.00;6.40;;;12.90;99.90;;;;;;5066103;28;20023;-44
2020/12/22 00:51:19;;;;;;;6.28;5.78;;;13.00;99.90;;;;;;5070551;28;20036;-44
2020/12/22 00:53:45;;;;;;;6.57;6.07;;;12.90;99.90;;;;;;5051765;28;20075;-44
2020/12/22 00:56:13;;;;;;;6.30;5.80;;;13.00;99.90;;;;;;5049694;28;20761;-44
2020/12/22 00:58:39;;;;;;;6.70;5.97;;;13.00;99.90;;;;;;5050731;28;20092;-44
2020/12/22 01:01:04;;;;;;;5.85;5.35;;;13.00;99.90;;;;;;5050145;28;20075;-44
2020/12/22 01:03:30;;;;;;;5.57;5.10;;;13.10;99.80;;;;;;5049487;28;20020;-44
2020/12/22 01:05:55;;;;;;;5.65;5.25;;;13.10;99.90;;;;;;5050457;28;20444;-44
2020/12/22 01:08:21;;;;;;;5.78;5.38;;;13.10;99.80;;;;;;5049675;28;20074;-44
2020/12/22 01:10:46;;;;;;;5.40;5.00;;;13.10;99.80;;;;;;5048210;28;20037;-44
2020/12/22 01:13:12;;;;;;;5.35;4.95;;;13.10;99.80;;;;;;5050233;28;20465;-44
2020/12/22 01:15:37;;;;;;;5.18;4.78;;;13.10;99.80;;;;;;5050421;28;20032;-44
2020/12/22 01:18:03;;;;;;;5.43;4.93;;;13.20;99.80;;;;;;5049711;28;20124;-44
2020/12/22 01:20:28;;;;;;;5.43;5.03;;;13.20;99.80;;;;;;5050225;28;20033;-44
2020/12/22 01:22:54;;;;;;;4.68;4.28;;;13.20;99.90;;;;;;5049806;28;20029;-44
2020/12/22 01:25:19;;;;;;;4.88;4.47;;;13.20;99.80;;;;;;5049206;28;20028;-43
2020/12/22 01:27:45;;;;;;;4.82;4.43;;;13.20;99.80;;;;;;5049840;28;20025;-43
2020/12/22 01:30:10;;;;;;;5.60;4.20;;;13.20;99.80;;;;;;5049893;28;20040;-44
2020/12/22 01:32:35;;;;;;;4.35;4.05;;;13.30;99.90;;;;;;5049765;28;20404;-44
2020/12/22 01:35:01;;;;;;;4.35;4.05;;;13.30;99.90;;;;;;5050140;28;20021;-44
2020/12/22 01:37:26;;;;;;;4.50;4.10;;;13.30;99.90;;;;;;5049617;28;20032;-44
2020/12/22 01:39:52;;;;;;;4.40;4.10;;;13.30;99.90;;;;;;5049017;28;20025;-44
2020/12/22 01:42:17;;;;;;;4.20;3.90;;;13.30;99.90;;;;;;5049709;28;20043;-44
2020/12/22 01:44:43;;;;;;;4.40;4.07;;;13.30;99.90;;;;;;5049662;28;20024;-44
2020/12/22 01:47:09;;;;;;;3.80;3.50;;;13.30;99.90;;;;;;5049156;28;20787;-44
2020/12/22 01:49:36;;;;;;;4.00;3.70;;;13.30;99.90;;;;;;5049952;28;20531;-44
2020/12/22 01:52:02;;;;;;;3.47;3.17;;;13.30;99.90;;;;;;5048744;28;20068;-45
2020/12/22 01:54:27;;;;;;;3.72;3.33;;;13.30;99.90;;;;;;5049325;28;20127;-45
2020/12/22 01:56:54;;;;;;;3.35;3.10;;;13.30;99.90;;;;;;5049592;28;20124;-44
2020/12/22 01:59:20;;;;;;;3.28;2.97;;;13.40;99.90;;;;;;5049082;28;20032;-44
2020/12/22 02:01:47;;;;;;;2.80;2.60;;;13.40;99.90;;;;;;5048853;28;20029;-44
2020/12/22 02:04:14;;;;;;;2.15;2.05;;;13.30;99.90;;;;;;5049394;28;20052;-44
2020/12/22 02:06:39;;;;;;;2.45;2.25;;;13.40;99.90;;;;;;5048355;28;20032;-44
2020/12/22 02:09:07;;;;;;;2.25;2.10;;;13.40;99.90;;;;;;5048850;28;20021;-44
2020/12/22 02:11:34;;;;;;;2.10;2.00;;;13.40;99.90;;;;;;5049218;28;20048;-44
2020/12/22 02:14:01;;;;;;;2.00;1.90;;;13.40;99.90;;;;;;5047789;28;20045;-44
2020/12/22 02:16:27;;;;;;;2.00;1.90;;;13.40;99.90;;;;;;5048600;28;20029;-45
2020/12/22 02:18:53;;;;;;;1.98;1.88;;;13.40;99.90;;;;;;5048285;28;20074;-44
2020/12/22 02:21:20;;;;;;;1.80;1.70;;;13.40;99.90;;;;;;5047985;28;20571;-44
2020/12/22 02:23:49;;;;;;;1.92;1.83;;;13.40;99.90;;;;;;5048370;28;20448;-44
2020/12/22 02:26:18;;;;;;;1.90;1.80;;;13.40;99.90;;;;;;5048661;28;20123;-45
2020/12/22 02:28:44;;;;;;;1.92;1.83;;;13.50;99.90;;;;;;5048220;28;20029;-45
2020/12/22 02:31:09;;;;;;;1.90;1.80;;;13.40;99.90;;;;;;5047961;28;20040;-44
2020/12/22 02:33:35;;;;;;;2.20;2.10;;;13.40;99.90;;;;;;5048372;28;20137;-45
2020/12/22 02:36:01;;;;;;;2.30;2.13;;;13.40;99.90;;;;;;5047618;28;20017;-44
2020/12/22 02:38:26;;;;;;;2.65;2.45;;;13.40;99.90;;;;;;5048397;28;20107;-44
2020/12/22 02:40:52;;;;;;;2.28;2.17;;;13.40;99.90;;;;;;5047999;28;20025;-44
2020/12/22 02:43:17;;;;;;;2.38;2.20;;;13.40;99.90;;;;;;5047742;28;20021;-44
2020/12/22 02:45:44;;;;;;;2.10;2.00;;;13.40;99.90;;;;;;5047658;28;20500;-44
2020/12/22 02:48:11;;;;;;;2.90;2.70;;;13.40;99.90;;;;;;5047566;28;20569;-44
2020/12/22 02:50:37;;;;;;;2.20;2.10;;;13.40;99.90;;;;;;5048083;28;20108;-45
2020/12/22 02:53:04;;;;;;;2.35;2.25;;;13.50;99.90;;;;;;5048620;28;20120;-44
2020/12/22 02:55:29;;;;;;;2.30;2.20;;;13.40;99.90;;;;;;5047457;28;20112;-44
2020/12/22 02:57:55;;;;;;;2.10;2.00;;;13.40;99.90;;;;;;5047602;28;20031;-44
2020/12/22 03:00:21;;;;;;;2.40;2.30;;;13.50;99.90;;;;;;5047479;28;20037;-44
2020/12/22 03:02:47;;;;;;;2.60;2.40;;;13.50;99.90;;;;;;5047092;28;20033;-45
2020/12/22 03:05:12;;;;;;;2.45;2.35;;;13.50;99.90;;;;;;5048182;28;20029;-44
2020/12/22 03:07:38;;;;;;;2.30;2.20;;;13.50;99.90;;;;;;5048554;28;20033;-45
2020/12/22 03:10:08;;;;;;;2.47;2.38;;;13.40;99.90;;;;;;5047718;28;20067;-45
2020/12/22 03:12:35;;;;;;;2.20;2.10;;;13.40;99.90;;;;;;5047126;28;20041;-45
2020/12/22 03:15:01;;;;;;;2.65;2.55;;;13.40;99.90;;;;;;5046823;28;20055;-46
2020/12/22 03:17:27;;;;;;;3.25;3.00;;;13.40;99.90;;;;;;5046669;28;20396;-45
2020/12/22 03:19:53;;;;;;;2.65;2.42;;;13.40;99.90;;;;;;5047020;28;20027;-45
2020/12/22 03:22:18;;;;;;;2.10;2.00;;;13.40;99.90;;;;;;5047512;28;20025;-46
2020/12/22 03:24:44;;;;;;;2.45;2.35;;;13.40;99.90;;;;;;5047374;28;20140;-45
2020/12/22 03:27:09;;;;;;;2.60;2.40;;;13.40;99.90;;;;;;5047744;28;20028;-45
2020/12/22 03:29:35;;;;;;;2.30;2.10;;;13.40;99.90;;;;;;5048066;28;20033;-46
2020/12/22 03:32:00;;;;;;;2.25;2.00;;;13.50;99.90;;;;;;5046991;28;20041;-46
2020/12/22 03:34:26;;;;;;;2.70;2.50;;;13.50;99.90;;;;;;5047683;28;20028;-45
2020/12/22 03:36:51;;;;;;;2.20;2.00;;;13.50;99.90;;;;;;5047368;28;20112;-46
2020/12/22 03:39:18;;;;;;;2.45;2.05;;;13.50;99.90;;;;;;5046831;28;20029;-45
2020/12/22 03:41:44;;;;;;;1.60;1.50;;;13.50;99.90;;;;;;5046975;28;20035;-45
2020/12/22 03:44:10;;;;;;;1.35;1.27;;;13.50;99.90;;;;;;5046469;28;20029;-45
2020/12/22 03:46:36;;;;;;;1.70;1.60;;;13.50;99.90;;;;;;5046461;28;20024;-45
2020/12/22 03:49:02;;;;;;;1.80;1.40;;;13.50;99.90;;;;;;5046915;28;20155;-45
2020/12/22 03:51:27;;;;;;;1.50;1.40;;;13.50;99.90;;;;;;5047006;28;20560;-45
2020/12/22 03:53:53;;;;;;;1.70;1.20;;;13.50;99.90;;;;;;5047074;28;20029;-44
2020/12/22 03:56:18;;;;;;;2.17;1.52;;;13.40;99.90;;;;;;5047035;28;20029;-45
2020/12/22 03:58:44;;;;;;;1.45;1.30;;;13.50;99.90;;;;;;5046622;28;20035;-45
2020/12/22 04:01:09;;;;;;;1.83;1.55;;;13.40;99.90;;;;;;5047106;28;20060;-45
2020/12/22 04:03:35;;;;;;;1.83;1.30;;;13.40;99.90;;;;;;5047052;28;20049;-45
2020/12/22 04:06:00;;;;;;;1.40;1.30;;;13.40;99.90;;;;;;5046634;28;20068;-45
2020/12/22 04:08:26;;;;;;;2.55;1.65;;;13.40;99.90;;;;;;5047371;28;20477;-45
2020/12/22 04:10:51;;;;;;;2.65;1.80;;;13.40;99.90;;;;;;5046581;28;20031;-45
2020/12/22 04:13:17;;;;;;;2.10;2.00;;;13.40;99.90;;;;;;5046072;28;20475;-45
2020/12/22 04:15:42;;;;;;;1.85;1.70;;;13.40;99.90;;;;;;5047004;28;20025;-45
2020/12/22 04:18:08;;;;;;;2.55;1.80;;;13.40;99.90;;;;;;5046665;28;20104;-45
2020/12/22 04:20:33;;;;;;;1.80;1.70;;;13.40;99.90;;;;;;5046807;28;20024;-45
2020/12/22 04:22:59;;;;;;;1.48;1.38;;;13.40;99.90;;;;;;5046495;28;20025;-45
2020/12/22 04:25:24;;;;;;;1.38;1.23;;;13.40;99.90;;;;;;5045540;28;20034;-45
2020/12/22 04:27:50;;;;;;;2.42;1.20;;;13.40;99.90;;;;;;5045623;28;20534;-45
2020/12/22 04:30:15;;;;;;;1.50;1.10;;;13.30;99.90;;;;;;5046053;28;20029;-45
2020/12/22 04:32:41;;;;;;;1.52;0.95;;;13.40;99.90;;;;;;5046440;28;20151;-45
2020/12/22 04:35:06;;;;;;;2.25;1.10;;;13.30;99.90;;;;;;5046250;28;20047;-46
2020/12/22 04:37:32;;;;;;;2.25;1.00;;;13.30;99.90;;;;;;5047073;28;20558;-46
2020/12/22 04:39:57;;;;;;;2.42;1.10;;;13.30;99.90;;;;;;5046504;28;20635;-46
2020/12/22 04:42:24;;;;;;;2.28;1.10;;;13.30;99.90;;;;;;5045981;28;20033;-45
2020/12/22 04:44:50;;;;;;;2.53;1.52;;;13.30;99.90;;;;;;5046798;28;20032;-46
2020/12/22 04:47:17;;;;;;;2.15;1.80;;;13.30;99.90;;;;;;5046014;28;20021;-46
2020/12/22 04:49:46;;;;;;;2.22;2.10;;;13.30;99.90;;;;;;5046293;28;20023;-46
2020/12/22 04:52:13;;;;;;;3.10;1.95;;;13.20;99.90;;;;;;5046288;28;20048;-46
2020/12/22 04:54:39;;;;;;;2.50;2.25;;;13.20;99.90;;;;;;5046338;28;20126;-46
2020/12/22 04:57:07;;;;;;;2.47;2.28;;;13.20;99.90;;;;;;5046237;28;20028;-46
2020/12/22 04:59:37;;;;;;;3.10;2.60;;;13.20;99.90;;;;;;5046716;28;20049;-46
2020/12/22 05:02:02;;;;;;;2.50;2.28;;;13.20;99.90;;;;;;5045859;28;20029;-46
2020/12/22 05:04:36;;;;;;;2.72;2.25;;;13.20;99.90;;;;;;5046635;28;20029;-46
2020/12/22 05:07:02;;;;;;;3.10;2.85;;;13.20;99.90;;;;;;5046422;28;20643;-46
2020/12/22 05:09:28;;;;;;;2.42;2.20;;;13.30;99.90;;;;;;5045782;28;20017;-46
2020/12/22 05:11:53;;;;;;;2.75;1.75;;;13.30;99.90;;;;;;5046181;28;20037;-46
2020/12/22 05:14:19;;;;;;;1.50;1.40;;;13.30;99.90;;;;;;5046337;28;20045;-46
2020/12/22 05:16:46;;;;;;;2.00;1.55;;;13.30;99.90;;;;;;5045405;28;20037;-46
2020/12/22 05:19:15;;;;;;;1.95;1.33;;;13.20;99.90;;;;;;5046015;28;20477;-46
2020/12/22 05:21:41;;;;;;;3.97;1.30;;;13.20;99.90;;;;;;5045459;28;20040;-45
2020/12/22 05:24:07;;;;;;;3.38;1.30;;;13.20;99.90;;;;;;5045514;28;20021;-46
2020/12/22 05:26:33;;;;;;;2.17;1.70;;;13.30;99.90;;;;;;5046625;28;20463;-45
2020/12/22 05:29:13;;;;;;;3.17;1.30;;;13.30;99.90;;;;;;5046075;28;20484;-45
2020/12/22 05:31:50;;;;;;;3.88;2.03;;;13.20;99.90;;;;;;5044909;28;20036;-46
2020/12/22 05:34:17;;;;;;;1.90;1.63;;;13.20;99.90;;;;;;5045888;28;20060;-45
2020/12/22 05:36:44;;;;;;;2.70;1.58;;;13.20;99.90;;;;;;5046615;28;20029;-46
2020/12/22 05:39:14;;;;;;;2.15;1.55;;;13.20;99.90;;;;;;5048566;28;20094;-46
2020/12/22 05:41:40;;;;;;;2.28;1.50;;;13.20;99.90;;;;;;5049220;28;20082;-46
2020/12/22 05:44:06;;;;;;;3.95;1.73;;;13.20;99.90;;;;;;5048659;28;20659;-46
2020/12/22 05:46:37;;;;;;;5.30;2.13;;;13.20;99.90;;;;;;5049710;28;20021;-46
2020/12/22 05:49:09;;;;;;;3.67;2.03;;;13.20;99.90;;;;;;5049007;28;20441;-46
2020/12/22 05:51:35;;;;;;;5.93;1.98;;;13.20;99.90;;;;;;5048693;28;20431;-46
2020/12/22 05:54:08;;;;;;;2.95;2.00;;;13.20;99.90;;;;;;5049220;28;20017;-44
2020/12/22 05:56:35;;;;;;;2.58;1.40;;;13.20;99.90;;;;;;5050079;28;20041;-45
2020/12/22 05:59:01;;;;;;;4.05;1.50;;;13.20;99.90;;;;;;5048899;28;20025;-45
2020/12/22 06:01:31;;;;;;;3.15;1.45;;;13.20;99.90;;;;;;5048887;28;20021;-46
2020/12/22 06:03:58;;;;;;;3.10;1.35;;;13.30;99.90;;;;;;5048674;28;20031;-46
2020/12/22 06:06:26;;;;;;;3.05;1.63;;;13.30;99.90;;;;;;5047974;28;20025;-45
2020/12/22 06:08:52;;;;;;;3.95;1.40;;;13.30;99.80;;;;;;5049323;28;20104;-45
2020/12/22 06:11:18;;;;;;;2.17;1.48;;;13.30;99.70;;;;;;5049298;28;20124;-46
2020/12/22 06:13:46;;;;;;;3.00;1.80;;;13.30;99.60;;;;;;5048694;28;20044;-46
2020/12/22 06:16:22;;;;;;;3.53;1.50;;;13.30;99.60;;;;;;5048517;28;20029;-45
2020/12/22 06:18:52;;;;;;;4.60;1.60;;;13.30;99.50;;;;;;5048835;28;20489;-45
2020/12/22 06:21:21;;;;;;;4.72;2.00;;;13.30;99.50;;;;;;5047916;28;20123;-46
2020/12/22 06:23:48;;;;;;;3.95;2.58;;;13.30;99.50;;;;;;5048704;28;20029;-46
2020/12/22 06:26:16;;;;;;;6.43;2.97;;;13.30;99.50;;;;;;5048904;28;20057;-45
2020/12/22 06:28:42;;;;;;;8.90;3.70;;;13.30;99.50;;;;;;5048652;28;20112;-45
2020/12/22 06:31:22;;;;;;;9.13;4.78;;;13.40;99.50;;;;;;5048299;28;20128;-45
2020/12/22 06:33:52;;;;;;;8.63;4.90;;;13.40;99.50;;;;;;5047976;28;20052;-45
2020/12/22 06:36:18;;;;;;;10.10;6.45;;;13.40;99.50;;;;;;5047908;28;20476;-44
2020/12/22 06:38:47;;;;;;;11.27;5.88;;;13.30;99.40;;;;;;5048281;28;20090;-44
2020/12/22 06:41:34;;;;;;;7.30;5.90;;;13.40;99.40;;;;;;5048174;28;20473;-45
2020/12/22 06:44:27;;;;;;;6.53;5.60;;;13.40;99.40;;;;;;5048846;28;20048;-45
2020/12/22 06:46:59;;;;;;;8.23;6.97;;;13.40;99.40;;;;;;5040020;28;20037;-44
2020/12/22 06:49:44;;;;;;;;;;;13.40;99.40;;;;;;5047836;28;20280;-44
2020/12/22 06:52:34;;;;;;;9.55;6.72;;;13.40;99.40;;;;;;5047843;28;19916;-44
2020/12/22 06:55:01;;;;;;;11.88;7.70;;;13.30;99.40;;;;;;5047324;28;20118;-45
2020/12/22 06:57:49;;;;;;;10.63;6.93;;;13.30;99.20;;;;;;5047988;28;20028;-44
2020/12/22 07:00:36;;;;;;;9.38;6.43;;;13.30;99.30;;;;;;5048119;28;20140;-44
2020/12/22 07:03:22;;;;;;;11.68;5.40;;;13.40;99.00;;;;;;5047096;28;20451;-44
2020/12/22 07:05:48;;;;;;;8.50;4.70;;;13.30;98.80;;;;;;5047582;28;20111;-44
2020/12/22 07:08:15;;;;;;;8.50;4.43;;;13.30;98.70;;;;;;5047528;28;20047;-45
2020/12/22 07:10:45;;;;;;;7.63;4.63;;;13.30;98.70;;;;;;5047618;28;20031;-45
2020/12/22 07:13:12;;;;;;;6.75;3.85;;;13.30;98.60;;;;;;5047755;28;20032;-45
2020/12/22 07:15:50;;;;;;;8.23;4.00;;;13.30;98.40;;;;;;5048039;28;20057;-45
2020/12/22 07:18:30;;;;;;;12.82;3.28;;;13.30;98.20;;;;;;5047464;28;20476;-45
2020/12/22 07:20:56;;;;;;;6.38;2.67;;;13.20;98.20;;;;;;5047293;28;20029;-47
2020/12/22 07:23:21;;;;;;;7.50;2.90;;;13.30;98.30;;;;;;5046801;28;20144;-45
2020/12/22 07:25:47;;;;;;;9.35;2.83;;;13.30;98.00;;;;;;5047088;28;20126;-45
2020/12/22 07:28:13;;;;;;;5.47;2.33;;;13.20;97.90;;;;;;5047259;28;20469;-44
2020/12/22 07:30:38;;;;;;;4.20;2.03;;;13.30;97.80;;;;;;5046868;28;20025;-45
2020/12/22 07:33:04;;;;;;;4.72;1.92;;;13.30;98.00;;;;;;5047362;28;20029;-44
2020/12/22 07:35:30;;;;;;;5.07;1.60;;;13.30;98.00;;;;;;5046948;28;20025;-44
2020/12/22 07:38:10;;;;;;;3.15;1.40;;;13.30;97.80;;;;;;5046289;28;20037;-43
2020/12/22 07:40:37;;;;;;;7.53;1.48;;;13.20;97.60;;;;;;5046813;28;20146;-44
2020/12/22 07:43:08;;;;;;;9.10;1.70;;;13.20;97.60;;;;;;5044412;28;20036;-44
2020/12/22 07:45:34;;;;;;;5.25;1.17;;;13.20;97.40;;;;;;5046159;28;20021;-43
2020/12/22 07:48:03;;;;;;;5.35;1.73;;;13.20;97.60;;;;;;5055335;28;20028;-44
2020/12/22 07:50:29;;;;;;;4.95;1.50;;;13.20;97.30;;;;;;5046100;28;20029;-44
2020/12/22 07:52:58;;;;;;;5.03;1.35;;;13.20;97.30;;;;;;5052358;28;20058;-45
2020/12/22 07:55:23;;;;;;;4.40;1.27;;;13.20;97.20;;;;;;5066849;28;20017;-44
2020/12/22 07:57:51;;;;;;;3.85;1.00;;;13.20;97.10;;;;;;5063022;28;20073;-43
2020/12/22 08:00:16;;;;;;;4.80;1.08;;;13.20;97.20;;;;;;5059426;28;20025;-44
2020/12/22 08:02:42;;;;;;;6.55;1.42;;;13.20;97.20;;;;;;5055075;28;20032;-45
2020/12/22 08:05:12;;;;;;;5.18;1.17;;;13.20;97.00;;;;;;5062809;28;20025;-44
2020/12/22 08:07:39;;;;;;;2.92;0.90;;;13.20;97.00;;;;;;5066795;28;20067;-44
2020/12/22 08:10:15;;;;;;;4.90;1.05;;;13.20;97.00;;;;;;5067756;28;20025;-44
2020/12/22 08:12:42;;;;;;;5.53;1.00;;;13.10;97.20;;;;;;5059405;28;20040;-44
2020/12/22 08:15:10;;;;;;;6.30;1.42;;;13.10;97.20;;;;;;5054943;28;20131;-44
2020/12/22 08:17:40;;;;;;;7.18;1.33;;;13.10;97.30;;;;;;5055253;28;20040;-44
2020/12/22 08:20:07;;;;;;;5.25;1.38;;;13.00;97.30;;;;;;5056641;28;20472;-44
2020/12/22 08:22:34;;;;;;;6.97;1.60;;;13.00;97.40;;;;;;5055721;28;20035;-44
2020/12/22 08:25:01;;;;;;;13.95;2.05;;;13.00;97.50;;;;;;5054915;28;20518;-43
2020/12/22 08:27:29;;;;;;;9.98;2.03;;;12.90;97.50;;;;;;5055436;28;20044;-44
2020/12/22 08:29:54;;;;;;;10.73;1.80;;;12.90;97.50;;;;;;5055716;28;20109;-44
2020/12/22 08:32:24;;;;;;;9.63;2.00;;;12.90;97.60;;;;;;5046029;28;20125;-45
2020/12/22 08:34:52;;;;;;;8.82;1.85;;;12.90;97.60;;;;;;5045761;28;20384;-43
2020/12/22 08:37:27;;;;;;;7.53;1.65;;;12.90;97.60;;;;;;5045802;28;20036;-45
2020/12/22 08:39:54;;;;;;;8.35;1.77;;;12.90;97.60;;;;;;5043388;28;20116;-44
2020/12/22 08:42:20;;;;;;;8.25;2.00;;;12.90;97.60;;;;;;5045631;28;20037;-44
2020/12/22 08:44:53;;;;;;;6.70;1.50;;;13.00;97.50;;;;;;5045401;28;20513;-44
2020/12/22 08:47:19;;;;;;;5.30;1.50;;;13.00;97.50;;;;;;5045475;28;20062;-44
2020/12/22 08:49:46;;;;;;;9.98;1.92;;;13.00;97.40;;;;;;5045036;28;20040;-44
2020/12/22 08:52:17;;;;;;;6.72;1.65;;;13.00;97.40;;;;;;5049618;28;20044;-44
2020/12/22 08:54:43;;;;;;;10.23;2.55;;;13.00;97.40;;;;;;5043529;28;20021;-44
2020/12/22 08:57:09;;;;;;;7.65;2.17;;;13.00;97.50;;;;;;5043912;28;20064;-44
2020/12/22 08:59:35;;;;;;;7.97;2.00;;;13.00;97.60;;;;;;5046416;28;20314;-44
2020/12/22 09:02:01;;;;;;;8.68;2.00;;;12.90;97.70;;;;;;5045026;28;20028;-44
2020/12/22 09:04:31;;;;;;;6.57;1.63;;;12.90;97.80;;;;;;5048079;28;20061;-44
2020/12/22 09:06:57;;;;;;;8.75;2.08;;;12.80;97.90;;;;;;5054363;28;20033;-44
2020/12/22 09:09:28;;;;;;;12.88;3.00;;;12.80;97.90;;;;;;5045138;28;20017;-44
2020/12/22 09:12:03;;;;;;;6.22;1.67;;;12.80;98.00;;;;;;5046126;28;20384;-44
2020/12/22 09:14:38;;;;;;;11.05;1.70;;;12.80;97.90;;;;;;5049028;28;20055;-44
2020/12/22 09:17:04;;;;;;;12.10;1.98;;;12.80;97.90;;;;;;5048910;28;20060;-45
2020/12/22 09:19:50;;;;;;;11.27;2.65;;;12.80;97.90;;;;;;5049190;28;20446;-44
2020/12/22 09:22:24;;;;;;;8.95;2.28;;;12.80;97.80;;;;;;5046666;28;20017;-45
2020/12/22 09:24:55;;;;;;;7.72;1.75;;;12.90;97.70;;;;;;5046389;28;20380;-45
2020/12/22 09:27:47;;;;;;;7.65;2.20;;;12.80;97.70;;;;;;5049125;28;20091;-45
2020/12/22 09:30:15;;;;;;;10.50;2.08;;;12.80;97.70;;;;;;5044920;28;20073;-44
2020/12/22 09:32:43;;;;;;;11.15;1.92;;;12.90;97.70;;;;;;5048274;28;20079;-44
2020/12/22 09:35:09;;;;;;;10.85;2.20;;;12.90;97.70;;;;;;5048828;28;20032;-44
2020/12/22 09:37:34;;;;;;;12.60;2.45;;;12.90;97.60;;;;;;5049970;28;20055;-44
2020/12/22 09:40:00;;;;;;;8.10;2.13;;;12.90;97.70;;;;;;5056941;28;20029;-44
2020/12/22 09:42:27;;;;;;;10.25;2.30;;;13.00;97.60;;;;;;5059609;28;20476;-44
2020/12/22 09:44:53;;;;;;;13.32;2.60;;;13.00;97.70;;;;;;5050729;28;20036;-44
2020/12/22 09:47:19;;;;;;;13.05;2.25;;;12.90;97.70;;;;;;5048767;28;20444;-44
2020/12/22 09:49:44;;;;;;;11.52;2.47;;;12.90;97.70;;;;;;5050691;28;20029;-43
2020/12/22 09:52:13;;;;;;;5.50;2.00;;;13.00;97.70;;;;;;5045343;28;20033;-44
2020/12/22 09:54:38;;;;;;;10.23;2.25;;;13.00;97.80;;;;;;5048220;28;20116;-43
2020/12/22 09:57:04;;;;;;;12.18;2.55;;;13.00;97.80;;;;;;5047896;28;20111;-44
2020/12/22 09:59:30;;;;;;;10.18;2.15;;;13.00;97.60;;;;;;5047701;28;20124;-44
2020/12/22 10:01:58;;;;;;;9.90;2.30;;;13.00;97.60;;;;;;5061667;28;20055;-44
2020/12/22 10:04:23;;;;;;;11.25;2.58;;;13.00;97.60;;;;;;5067227;28;20821;-43
2020/12/22 10:06:50;;;;;;;16.10;2.30;;;13.00;97.40;;;;;;5068480;28;20033;-44
2020/12/22 10:09:16;;;;;;;8.07;2.10;;;13.10;97.40;;;;;;5068211;28;20472;-44
2020/12/22 10:11:42;;;;;;;12.23;2.17;;;13.10;97.30;;;;;;5059482;28;20139;-44
2020/12/22 10:14:08;;;;;;;9.13;1.80;;;13.10;97.30;;;;;;5066730;28;20399;-43
2020/12/22 10:16:34;;;;;;;9.32;2.35;;;13.10;97.20;;;;;;5069048;28;20082;-44
2020/12/22 10:18:59;;;;;;;9.55;1.92;;;13.10;97.10;;;;;;5068491;28;20559;-44
2020/12/22 10:21:25;;;;;;;14.48;2.72;;;13.20;97.10;;;;;;5069147;28;20032;-43
2020/12/22 10:23:52;;;;;;;6.88;1.90;;;13.10;97.20;;;;;;5067370;28;20090;-43
2020/12/22 10:26:19;;;;;;;8.32;2.00;;;13.10;97.20;;;;;;5068488;28;20388;-44
2020/12/22 10:28:47;;;;;;;8.55;2.03;;;13.10;97.20;;;;;;5068825;28;20605;-43
2020/12/22 10:31:14;;;;;;;8.30;2.08;;;13.10;97.30;;;;;;5068624;28;20064;-44
2020/12/22 10:33:40;;;;;;;6.35;2.15;;;13.10;97.30;;;;;;5062190;28;20048;-44
2020/12/22 10:36:05;;;;;;;6.32;2.00;;;13.00;97.40;;;;;;5047854;28;20488;-44
2020/12/22 10:38:32;;;;;;;6.65;2.13;;;13.00;97.50;;;;;;5048342;28;20025;-43
2020/12/22 10:40:57;;;;;;;9.63;2.30;;;13.00;97.60;;;;;;5048037;28;20104;-44
2020/12/22 10:43:23;;;;;;;6.82;2.30;;;13.00;97.70;;;;;;5048026;28;20108;-43
2020/12/22 10:45:48;;;;;;;9.30;2.50;;;13.00;97.80;;;;;;5056990;28;20044;-43
2020/12/22 10:48:14;;;;;;;7.90;2.78;;;12.90;97.80;;;;;;5058192;28;20079;-44
2020/12/22 10:50:40;;;;;;;11.32;3.63;;;12.90;97.90;;;;;;5061979;28;20036;-44
2020/12/22 10:53:07;;;;;;;11.90;3.55;;;12.80;98.00;;;;;;5049425;28;20021;-44
2020/12/22 10:55:33;;;;;;;10.10;3.83;;;12.80;98.20;;;;;;5049656;28;20155;-44
2020/12/22 10:57:58;;;;;;;7.05;3.05;;;12.70;98.20;;;;;;5055808;28;20859;-43
2020/12/22 11:00:24;;;;;;;12.07;3.70;;;12.80;98.30;;;;;;5048138;28;20025;-43
2020/12/22 11:02:52;;;;;;;10.50;3.40;;;12.70;98.30;;;;;;5045833;28;20076;-44
2020/12/22 11:06:04;;;;;;;9.90;4.07;;;12.70;98.40;;;;;;5046027;28;20036;-44
2020/12/22 11:08:05;;;;;;;12.43;4.00;;;12.80;98.70;;;;;;5045513;28;20059;-44
2020/12/22 11:10:30;;;;;;;9.45;4.20;;;12.80;98.40;;;;;;5046768;28;20480;-44
2020/12/22 11:12:56;;;;;;;8.15;3.55;;;12.80;98.40;;;;;;5046288;28;20600;-43
2020/12/22 11:15:22;;;;;;;8.30;3.92;;;12.80;98.40;;;;;;5044766;28;20049;-44
2020/12/22 11:17:48;;;;;;;6.40;3.50;;;12.80;98.30;;;;;;5045630;28;20392;-44
2020/12/22 11:20:13;;;;;;;10.32;3.08;;;12.80;98.30;;;;;;5045679;28;20026;-44
2020/12/22 11:22:38;;;;;;;6.63;2.08;;;12.80;98.30;;;;;;5045754;28;20506;-44
2020/12/22 11:25:04;;;;;;;6.78;1.58;;;12.80;97.80;;;;;;5045885;28;20029;-44
2020/12/22 11:27:29;;;;;;;3.28;1.30;;;12.80;97.90;;;;;;5047447;28;20111;-44
2020/12/22 11:29:55;;;;;;;4.53;2.00;;;12.80;97.90;;;;;;5045800;28;20506;-43
2020/12/22 11:32:20;;;;;;;4.03;1.60;;;12.80;97.90;;;;;;5045900;28;20041;-44
2020/12/22 11:34:46;;;;;;;4.72;1.40;;;12.70;97.80;;;;;;5048872;28;20473;-44
2020/12/22 11:37:11;;;;;;;3.28;1.30;;;12.70;97.80;;;;;;5044037;28;20032;-44
2020/12/22 11:39:37;;;;;;;4.88;1.33;;;12.70;97.20;;;;;;5047215;28;20698;-44
2020/12/22 11:42:04;;;;;;;4.65;1.33;;;12.70;97.40;;;;;;5045889;28;20037;-44
2020/12/22 11:44:30;;;;;;;2.15;1.10;;;12.70;97.50;;;;;;5045456;28;20064;-44
2020/12/22 11:46:55;;;;;;;3.80;1.50;;;12.70;97.30;;;;;;5045801;28;20684;-44
2020/12/22 11:49:22;;;;;;;3.60;1.33;;;12.60;96.60;;;;;;5045573;28;20033;-44
2020/12/22 11:51:47;;;;;;;1.05;0.70;;;12.50;96.90;;;;;;5044890;28;20203;-43
2020/12/22 11:54:13;;;;;;;1.65;0.80;;;12.40;97.10;;;;;;5046636;28;20031;-44
2020/12/22 11:56:38;;;;;;;4.63;0.82;;;12.30;96.90;;;;;;5046401;28;20040;-44
2020/12/22 11:59:04;;;;;;;1.95;0.70;;;12.20;96.90;;;;;;5045050;28;20476;-44
2020/12/22 12:01:30;;;;;;;2.13;0.77;;;12.10;97.30;;;;;;5046519;28;20051;-44
2020/12/22 12:03:56;;;;;;;1.25;0.88;;;12.10;97.30;;;;;;5047307;28;20488;-44
2020/12/22 12:06:24;;;;;;;3.40;1.17;;;12.10;97.10;;;;;;5045601;28;20032;-44
2020/12/22 12:08:50;;;;;;;2.08;1.10;;;12.00;97.10;;;;;;5045262;28;20539;-43
2020/12/22 12:11:16;;;;;;;1.48;0.80;;;11.90;97.30;;;;;;5046794;28;20037;-43
2020/12/22 12:13:41;;;;;;;1.77;0.90;;;11.90;97.50;;;;;;5035552;28;20080;-43
2020/12/22 12:16:07;;;;;;;1.65;0.80;;;11.90;97.60;;;;;;5046889;28;20035;-43
2020/12/22 12:18:33;;;;;;;2.42;1.98;;;11.90;97.60;;;;;;5044191;28;20558;-43
2020/12/22 12:20:59;;;;;;;3.33;1.88;;;11.90;97.60;;;;;;5044690;28;20120;-43
2020/12/22 12:23:25;;;;;;;2.05;1.33;;;11.80;97.70;;;;;;5043798;28;20024;-43
2020/12/22 12:25:51;;;;;;;1.73;1.10;;;11.90;97.80;;;;;;5043489;28;20029;-43
2020/12/22 12:28:16;;;;;;;1.45;1.20;;;11.90;97.70;;;;;;5044398;28;20040;-43
2020/12/22 12:30:42;;;;;;;1.83;1.30;;;12.00;97.80;;;;;;5045216;28;20024;-44
2020/12/22 12:33:07;;;;;;;1.60;1.17;;;12.00;97.70;;;;;;5046026;28;20424;-44
2020/12/22 12:35:33;;;;;;;3.75;2.22;;;12.00;97.60;;;;;;5046521;28;20029;-42
2020/12/22 12:37:59;;;;;;;1.63;1.52;;;12.00;97.70;;;;;;5045841;28;20033;-43
2020/12/22 12:40:25;;;;;;;6.05;2.10;;;12.00;97.50;;;;;;5045556;28;20104;-43
2020/12/22 12:42:50;;;;;;;2.85;1.83;;;12.00;97.40;;;;;;5046426;28;20384;-44
2020/12/22 12:45:16;;;;;;;4.40;2.40;;;12.00;97.40;;;;;;5047254;28;20017;-43